createdAt,value
2022-10-26T00:01:09.003Z,16.67
2022-10-26T00:03:36.817Z,19.70
2022-10-26T00:06:11.863Z,18.25
2022-10-26T00:08:38.919Z,15.07
2022-10-26T00:11:07.193Z,17.15
2022-10-26T00:13:34.866Z,12.02
2022-10-26T00:16:02.597Z,17.55
2022-10-26T00:18:29.526Z,15.73
2022-10-26T00:21:02.622Z,13.73
2022-10-26T00:23:29.463Z,11.50
2022-10-26T00:25:58.613Z,17.52
2022-10-26T00:28:25.631Z,12.82
2022-10-26T00:30:52.702Z,15.05
2022-10-26T00:33:20.087Z,13.90
2022-10-26T00:35:56.403Z,12.52
2022-10-26T00:38:23.299Z,15.25
2022-10-26T00:40:50.583Z,17.27
2022-10-26T00:43:39.176Z,14.95
2022-10-26T00:46:09.729Z,12.75
2022-10-26T00:48:41.033Z,15.55
2022-10-26T00:51:15.730Z,11.90
2022-10-26T00:53:43.383Z,15.25
2022-10-26T00:56:10.367Z,12.13
2022-10-26T00:58:39.037Z,11.57
2022-10-26T01:01:06.039Z,13.05
2022-10-26T01:03:34.765Z,13.35
2022-10-26T01:06:03.609Z,14.65
2022-10-26T01:08:31.114Z,9.95
2022-10-26T01:10:59.253Z,16.10
2022-10-26T01:13:31.013Z,15.73
2022-10-26T01:16:39.479Z,10.27
2022-10-26T01:19:23.985Z,11.70
2022-10-26T01:22:12.140Z,15.10
2022-10-26T01:24:47.985Z,15.13
2022-10-26T01:27:36.195Z,12.10
2022-10-26T01:30:23.198Z,15.75
2022-10-26T01:33:02.349Z,16.40
2022-10-26T01:36:00.110Z,12.40
2022-10-26T01:38:38.903Z,10.15
2022-10-26T01:41:15.591Z,13.20
2022-10-26T01:43:48.944Z,10.63
2022-10-26T01:46:17.225Z,13.18
2022-10-26T01:48:45.456Z,12.98
2022-10-26T01:51:13.474Z,16.60
2022-10-26T01:53:47.307Z,20.25
2022-10-26T01:56:39.039Z,16.15
2022-10-26T01:59:21.044Z,13.48
2022-10-26T02:02:12.901Z,16.42
2022-10-26T02:04:54.791Z,14.43
2022-10-26T02:07:36.871Z,14.52
2022-10-26T02:10:28.144Z,12.68
2022-10-26T02:12:57.800Z,14.57
2022-10-26T02:15:34.419Z,15.15
2022-10-26T02:18:40.818Z,12.88
2022-10-26T02:21:13.367Z,15.25
2022-10-26T02:23:42.706Z,15.40
2022-10-26T02:26:11.978Z,13.30
2022-10-26T02:28:45.163Z,11.30
2022-10-26T02:31:14.047Z,11.95
2022-10-26T02:33:46.235Z,12.30
2022-10-26T02:36:17.361Z,15.23
2022-10-26T02:38:46.833Z,14.18
2022-10-26T02:41:15.548Z,16.52
2022-10-26T02:43:51.070Z,14.73
2022-10-26T02:46:22.931Z,15.50
2022-10-26T02:48:49.979Z,15.63
2022-10-26T02:51:44.064Z,15.07
2022-10-26T02:54:15.324Z,18.87
2022-10-26T02:57:01.888Z,18.30
2022-10-26T02:59:34.376Z,15.60
2022-10-26T03:02:01.919Z,15.75
2022-10-26T03:04:30.815Z,16.42
2022-10-26T03:06:58.032Z,18.15
2022-10-26T03:09:25.746Z,16.45
2022-10-26T03:11:53.385Z,17.27
2022-10-26T03:14:20.833Z,17.50
2022-10-26T03:16:47.786Z,19.17
2022-10-26T03:19:14.688Z,21.40
2022-10-26T03:21:42.502Z,23.13
2022-10-26T03:24:10.234Z,19.83
2022-10-26T03:26:37.261Z,16.67
2022-10-26T03:29:04.301Z,21.13
2022-10-26T03:31:31.220Z,20.50
2022-10-26T03:33:58.096Z,24.50
2022-10-26T03:36:24.994Z,20.77
2022-10-26T03:38:51.869Z,22.08
2022-10-26T03:41:18.750Z,25.13
2022-10-26T03:43:45.643Z,20.15
2022-10-26T03:46:12.547Z,17.25
2022-10-26T03:48:39.485Z,20.27
2022-10-26T03:51:06.466Z,19.02
2022-10-26T03:53:33.394Z,19.88
2022-10-26T03:56:00.274Z,18.60
2022-10-26T03:58:27.229Z,17.58
2022-10-26T04:00:54.223Z,16.85
2022-10-26T04:03:21.114Z,20.00
2022-10-26T04:05:48.026Z,24.35
2022-10-26T04:08:15.068Z,26.77
2022-10-26T04:10:41.934Z,20.83
2022-10-26T04:13:11.316Z,28.05
2022-10-26T04:15:38.516Z,28.23
2022-10-26T04:18:05.502Z,19.02
2022-10-26T04:20:35.147Z,23.55
2022-10-26T04:23:04.464Z,23.17
2022-10-26T04:25:33.646Z,19.05
2022-10-26T04:28:02.293Z,19.38
2022-10-26T04:30:29.467Z,15.43
2022-10-26T04:32:56.551Z,17.05
2022-10-26T04:35:23.765Z,16.77
2022-10-26T04:37:50.686Z,18.38
2022-10-26T04:40:17.660Z,14.95
2022-10-26T04:42:48.546Z,15.48
2022-10-26T04:45:16.438Z,22.05
2022-10-26T04:47:43.817Z,15.43
2022-10-26T04:50:12.584Z,14.25
2022-10-26T04:52:39.942Z,14.30
2022-10-26T04:55:08.018Z,14.23
2022-10-26T04:57:35.681Z,14.70
2022-10-26T05:00:04.588Z,12.25
2022-10-26T05:02:31.574Z,13.30
2022-10-26T05:04:58.558Z,14.57
2022-10-26T05:07:25.557Z,14.50
2022-10-26T05:09:52.520Z,12.85
2022-10-26T05:12:19.534Z,14.80
2022-10-26T05:14:46.430Z,14.05
2022-10-26T05:17:13.359Z,12.98
2022-10-26T05:19:40.303Z,13.90
2022-10-26T05:22:07.464Z,11.40
2022-10-26T05:24:34.582Z,14.65
2022-10-26T05:27:01.518Z,12.50
2022-10-26T05:29:28.535Z,12.50
2022-10-26T05:31:55.478Z,17.63
2022-10-26T05:34:22.430Z,14.18
2022-10-26T05:36:49.306Z,15.23
2022-10-26T05:39:16.232Z,17.83
2022-10-26T05:41:43.194Z,15.73
2022-10-26T05:44:10.184Z,17.30
2022-10-26T05:46:37.092Z,21.33
2022-10-26T05:49:04.126Z,18.73
2022-10-26T05:51:33.771Z,20.27
2022-10-26T05:54:00.705Z,17.15
2022-10-26T05:56:37.253Z,24.63
2022-10-26T05:59:10.504Z,21.15
2022-10-26T06:01:46.502Z,19.20
2022-10-26T06:04:31.359Z,17.95
2022-10-26T06:09:26.084Z,22.95
2022-10-26T06:11:53.244Z,17.65
2022-10-26T06:14:20.512Z,20.55
2022-10-26T06:17:08.693Z,16.48
2022-10-26T06:19:47.635Z,17.00
2022-10-26T06:22:32.604Z,16.98
2022-10-26T06:25:16.711Z,21.35
2022-10-26T06:27:55.277Z,18.08
2022-10-26T06:30:23.568Z,17.55
2022-10-26T06:33:01.281Z,21.52
2022-10-26T06:35:41.335Z,22.10
2022-10-26T06:41:50.399Z,19.05
2022-10-26T06:44:23.729Z,15.90
2022-10-26T06:47:10.320Z,15.30
2022-10-26T06:49:42.971Z,16.85
2022-10-26T06:52:35.472Z,15.23
2022-10-26T06:55:02.885Z,15.88
2022-10-26T06:57:34.873Z,18.30
2022-10-26T07:00:18.945Z,14.77
2022-10-26T07:02:46.398Z,17.73
2022-10-26T07:05:13.463Z,13.27
2022-10-26T07:07:48.201Z,21.27
2022-10-26T07:13:56.502Z,15.07
2022-10-26T07:16:23.613Z,12.52
2022-10-26T07:18:50.588Z,13.20
2022-10-26T07:21:17.503Z,11.35
2022-10-26T07:23:44.440Z,16.60
2022-10-26T07:29:52.174Z,11.07
2022-10-26T07:32:19.114Z,8.23
2022-10-26T07:34:46.001Z,11.25
2022-10-26T07:37:12.920Z,13.68
2022-10-26T07:39:39.794Z,20.48
2022-10-26T07:42:06.758Z,12.82
2022-10-26T07:44:33.679Z,13.55
2022-10-26T07:47:00.864Z,14.95
2022-10-26T07:49:28.066Z,12.45
2022-10-26T07:51:55.071Z,10.77
2022-10-26T07:54:21.990Z,10.40
2022-10-26T07:56:52.114Z,10.90
2022-10-26T07:59:19.116Z,10.75
2022-10-26T08:01:46.403Z,11.95
2022-10-26T08:04:13.455Z,11.35
2022-10-26T08:06:40.379Z,13.88
2022-10-26T08:09:07.329Z,9.85
2022-10-26T08:11:37.085Z,10.95
2022-10-26T08:14:04.826Z,12.73
2022-10-26T08:16:32.103Z,8.90
2022-10-26T08:18:59.041Z,8.88
2022-10-26T08:21:39.254Z,10.25
2022-10-26T08:24:07.503Z,9.27
2022-10-26T08:26:34.559Z,12.80
2022-10-26T08:29:01.518Z,9.70
2022-10-26T08:31:28.472Z,11.00
2022-10-26T08:33:55.355Z,10.05
2022-10-26T08:36:26.728Z,10.68
2022-10-26T08:38:53.942Z,8.52
2022-10-26T08:41:42.171Z,7.72
2022-10-26T08:44:27.901Z,7.70
2022-10-26T08:50:52.773Z,8.73
2022-10-26T08:53:25.519Z,7.93
2022-10-26T08:59:58.165Z,10.60
2022-10-26T09:02:25.254Z,9.60
2022-10-26T09:04:53.434Z,10.30
2022-10-26T09:07:43.847Z,11.70
2022-10-26T09:10:40.903Z,10.48
2022-10-26T09:13:26.581Z,10.70
2022-10-26T09:16:12.225Z,9.55
2022-10-26T09:19:03.377Z,10.10
2022-10-26T09:21:38.493Z,9.88
2022-10-26T09:24:14.479Z,9.68
2022-10-26T09:27:19.630Z,8.38
2022-10-26T09:29:47.772Z,9.73
2022-10-26T09:32:35.211Z,8.40
2022-10-26T09:35:20.551Z,4.97
2022-10-26T09:38:03.665Z,10.40
2022-10-26T09:40:34.385Z,9.82
2022-10-26T09:43:05.703Z,8.38
2022-10-26T09:45:39.288Z,8.57
2022-10-26T09:48:19.014Z,9.43
2022-10-26T09:50:49.756Z,6.55
2022-10-26T09:53:16.760Z,7.80
2022-10-26T09:55:46.829Z,6.50
2022-10-26T09:58:24.383Z,9.18
2022-10-26T10:00:52.333Z,7.15
2022-10-26T10:03:25.427Z,7.10
2022-10-26T10:05:53.261Z,9.57
2022-10-26T10:08:25.899Z,10.77
2022-10-26T10:11:00.252Z,6.45
2022-10-26T10:13:30.682Z,5.07
2022-10-26T10:16:21.128Z,5.00
2022-10-26T10:18:59.331Z,7.63
2022-10-26T10:21:39.625Z,5.97
2022-10-26T10:24:27.638Z,9.05
2022-10-26T10:27:06.083Z,7.47
2022-10-26T10:29:39.740Z,8.57
2022-10-26T10:35:53.831Z,7.65
2022-10-26T10:38:22.064Z,7.82
2022-10-26T10:41:00.279Z,6.47
2022-10-26T10:43:27.659Z,10.40
2022-10-26T10:45:59.736Z,4.00
2022-10-26T10:48:29.480Z,7.22
2022-10-26T10:51:02.009Z,9.45
2022-10-26T10:53:46.176Z,7.82
2022-10-26T10:56:49.045Z,7.93
2022-10-26T10:59:53.088Z,7.50
2022-10-26T11:02:34.938Z,5.15
2022-10-26T11:05:07.951Z,5.43
2022-10-26T11:07:46.885Z,9.57
2022-10-26T11:10:17.910Z,6.95
2022-10-26T11:12:53.175Z,5.68
2022-10-26T11:15:26.403Z,10.30
2022-10-26T11:18:00.576Z,6.80
2022-10-26T11:23:09.782Z,5.63
2022-10-26T11:26:12.007Z,7.82
2022-10-26T11:29:06.058Z,5.43
2022-10-26T11:31:41.719Z,5.88
2022-10-26T11:34:11.359Z,7.93
2022-10-26T11:36:41.819Z,7.35
2022-10-26T11:39:34.114Z,8.40
2022-10-26T11:42:16.183Z,7.18
2022-10-26T11:44:53.067Z,6.68
2022-10-26T11:47:39.833Z,5.50
2022-10-26T11:50:17.109Z,7.35
2022-10-26T11:53:02.540Z,8.48
2022-10-26T11:55:30.987Z,5.43
2022-10-26T11:57:58.802Z,4.65
2022-10-26T12:00:27.085Z,7.13
2022-10-26T12:03:12.175Z,6.80
2022-10-26T12:05:45.057Z,6.10
2022-10-26T12:08:24.305Z,5.35
2022-10-26T12:13:39.466Z,3.80
2022-10-26T12:16:25.699Z,10.48
2022-10-26T12:19:04.764Z,6.65
2022-10-26T12:21:33.438Z,6.57
2022-10-26T12:24:33.581Z,8.43
2022-10-26T12:27:06.230Z,7.25
2022-10-26T12:29:47.666Z,6.20
2022-10-26T12:32:32.602Z,6.47
2022-10-26T12:35:03.763Z,6.03
2022-10-26T12:37:37.647Z,6.13
2022-10-26T12:40:30.655Z,5.03
2022-10-26T12:42:58.763Z,5.60
2022-10-26T12:45:25.678Z,3.38
2022-10-26T12:47:52.655Z,4.97
2022-10-26T12:50:25.954Z,4.18
2022-10-26T12:52:55.951Z,6.03
2022-10-26T12:55:32.098Z,7.80
2022-10-26T12:58:17.442Z,7.72
2022-10-26T13:01:07.378Z,5.65
2022-10-26T13:03:34.290Z,5.82
2022-10-26T13:06:45.984Z,6.82
2022-10-26T13:09:33.278Z,8.05
2022-10-26T13:12:03.372Z,5.20
2022-10-26T13:14:37.392Z,5.10
2022-10-26T13:17:07.176Z,5.32
2022-10-26T13:19:42.734Z,6.45
2022-10-26T13:22:16.848Z,4.97
2022-10-26T13:24:52.423Z,3.75
2022-10-26T13:27:19.310Z,5.15
2022-10-26T13:30:04.373Z,5.55
2022-10-26T13:32:54.682Z,6.22
2022-10-26T13:35:24.190Z,5.53
2022-10-26T13:37:55.106Z,6.32
2022-10-26T13:40:25.402Z,4.82
2022-10-26T13:42:58.248Z,7.90
2022-10-26T13:45:34.376Z,8.95
2022-10-26T13:51:51.660Z,6.90
2022-10-26T13:54:34.966Z,7.20
2022-10-26T13:57:29.443Z,5.85
2022-10-26T14:00:03.028Z,5.93
2022-10-26T14:02:31.153Z,7.93
2022-10-26T14:05:04.161Z,6.18
2022-10-26T14:07:54.207Z,5.60
2022-10-26T14:10:43.219Z,5.20
2022-10-26T14:13:15.529Z,10.77
2022-10-26T14:15:46.742Z,7.63
2022-10-26T14:18:25.131Z,7.88
2022-10-26T14:21:33.401Z,6.15
2022-10-26T14:24:04.291Z,7.22
2022-10-26T14:26:41.618Z,7.32
2022-10-26T14:29:20.779Z,7.35
2022-10-26T14:31:50.079Z,4.00
2022-10-26T14:34:18.457Z,8.30
2022-10-26T14:36:59.481Z,5.00
2022-10-26T14:39:40.978Z,7.20
2022-10-26T14:42:34.665Z,6.75
2022-10-26T14:45:02.501Z,4.45
2022-10-26T14:47:32.812Z,6.90
2022-10-26T14:52:35.868Z,9.43
2022-10-26T14:55:15.271Z,7.75
2022-10-26T14:57:45.295Z,8.27
2022-10-26T15:00:20.130Z,8.38
2022-10-26T15:02:50.433Z,8.43
2022-10-26T15:05:17.608Z,7.22
2022-10-26T15:07:45.675Z,5.47
2022-10-26T15:10:37.400Z,9.20
2022-10-26T15:13:16.928Z,10.55
2022-10-26T15:15:47.034Z,6.22
2022-10-26T15:18:29.038Z,7.47
2022-10-26T15:20:57.336Z,11.15
2022-10-26T15:23:26.723Z,9.10
2022-10-26T15:25:58.577Z,6.50
2022-10-26T15:28:39.107Z,7.32
2022-10-26T15:31:10.469Z,6.85
2022-10-26T15:33:43.333Z,7.40
2022-10-26T15:36:22.304Z,7.93
2022-10-26T15:38:49.466Z,6.07
2022-10-26T15:41:24.185Z,10.93
2022-10-26T15:43:53.560Z,7.85
2022-10-26T15:46:21.413Z,8.43
2022-10-26T15:48:57.043Z,8.93
2022-10-26T15:51:24.515Z,7.55
2022-10-26T15:53:51.956Z,6.60
2022-10-26T15:56:24.925Z,7.05
2022-10-26T15:58:52.269Z,9.35
2022-10-26T16:01:24.260Z,10.90
2022-10-26T16:03:52.144Z,8.43
2022-10-26T16:06:29.866Z,9.05
2022-10-26T16:09:00.478Z,7.88
2022-10-26T16:11:27.984Z,8.55
2022-10-26T16:13:57.086Z,8.40
2022-10-26T16:16:26.630Z,10.93
2022-10-26T16:19:06.031Z,11.27
2022-10-26T16:21:39.261Z,11.07
2022-10-26T16:24:06.394Z,13.10
2022-10-26T16:26:33.357Z,10.02
2022-10-26T16:29:00.590Z,9.00
2022-10-26T16:31:27.647Z,13.73
2022-10-26T16:33:54.580Z,15.63
2022-10-26T16:36:21.441Z,16.73
2022-10-26T16:38:48.699Z,16.67
2022-10-26T16:41:19.031Z,11.38
2022-10-26T16:43:49.199Z,12.93
2022-10-26T16:46:20.941Z,10.60
2022-10-26T16:48:49.787Z,11.63
2022-10-26T16:51:21.037Z,16.25
2022-10-26T16:53:49.529Z,20.50
2022-10-26T16:56:19.345Z,16.98
2022-10-26T16:58:46.695Z,22.92
2022-10-26T17:01:18.318Z,25.25
2022-10-26T17:03:50.541Z,23.95
2022-10-26T17:06:18.299Z,39.35
2022-10-26T17:08:45.365Z,32.08
2022-10-26T17:11:17.887Z,40.80
2022-10-26T17:13:45.270Z,22.20
2022-10-26T17:16:18.139Z,26.08
2022-10-26T17:18:46.003Z,27.38
2022-10-26T17:21:15.343Z,19.10
2022-10-26T17:23:42.406Z,19.83
2022-10-26T17:26:11.502Z,17.52
2022-10-26T17:28:38.901Z,16.38
2022-10-26T17:31:14.005Z,18.05
2022-10-26T17:33:43.267Z,15.38
2022-10-26T17:36:12.773Z,17.50
2022-10-26T17:38:41.727Z,13.82
2022-10-26T17:41:11.510Z,13.80
2022-10-26T17:43:39.636Z,10.98
2022-10-26T17:46:10.319Z,13.50
2022-10-26T17:48:37.659Z,17.15
2022-10-26T17:51:07.920Z,15.57
2022-10-26T17:53:34.762Z,16.42
2022-10-26T17:56:07.755Z,15.60
2022-10-26T17:58:35.635Z,18.33
2022-10-26T18:01:07.404Z,17.33
2022-10-26T18:03:35.076Z,19.48
2022-10-26T18:06:02.687Z,17.42
2022-10-26T18:08:33.123Z,19.80
2022-10-26T18:11:00.211Z,16.38
2022-10-26T18:13:34.129Z,16.70
2022-10-26T18:16:06.436Z,19.35
2022-10-26T18:18:33.877Z,17.00
2022-10-26T18:21:05.500Z,17.33
2022-10-26T18:23:32.412Z,24.23
2022-10-26T18:26:22.787Z,17.10
2022-10-26T18:28:50.030Z,22.00
2022-10-26T18:31:20.899Z,22.58
2022-10-26T18:33:48.174Z,23.45
2022-10-26T18:36:19.327Z,26.65
2022-10-26T18:38:49.538Z,21.45
2022-10-26T18:41:18.497Z,25.13
2022-10-26T18:43:49.539Z,23.65
2022-10-26T18:46:20.813Z,18.92
2022-10-26T18:48:48.791Z,23.70
2022-10-26T18:51:18.522Z,24.88
2022-10-26T18:53:46.791Z,24.13
2022-10-26T18:56:19.509Z,18.83
2022-10-26T18:58:49.124Z,24.10
2022-10-26T19:01:18.510Z,26.05
2022-10-26T19:03:47.347Z,23.60
2022-10-26T19:06:20.176Z,23.17
2022-10-26T19:08:47.703Z,24.10
2022-10-26T19:11:16.645Z,26.73
2022-10-26T19:13:43.735Z,26.00
2022-10-26T19:16:21.935Z,23.63
2022-10-26T19:19:01.004Z,26.73
2022-10-26T19:21:29.620Z,20.67
2022-10-26T19:23:59.247Z,22.88
2022-10-26T19:26:34.674Z,28.58
2022-10-26T19:29:06.183Z,23.65
2022-10-26T19:31:33.901Z,23.30
2022-10-26T19:34:01.661Z,28.10
2022-10-26T19:36:29.297Z,28.30
2022-10-26T19:38:56.568Z,30.70
2022-10-26T19:41:26.782Z,21.88
2022-10-26T19:43:57.349Z,21.38
2022-10-26T19:46:26.741Z,24.92
2022-10-26T19:48:59.178Z,26.90
2022-10-26T19:51:27.932Z,32.58
2022-10-26T19:53:57.862Z,26.40
2022-10-26T19:56:27.838Z,26.73
2022-10-26T19:58:55.852Z,32.58
2022-10-26T20:01:23.137Z,26.08
2022-10-26T20:03:50.141Z,26.05
2022-10-26T20:06:18.434Z,25.05
2022-10-26T20:08:47.439Z,26.67
2022-10-26T20:11:16.791Z,29.08
2022-10-26T20:13:45.545Z,32.75
2022-10-26T20:16:13.574Z,25.77
2022-10-26T20:18:44.076Z,31.30
2022-10-26T20:21:15.574Z,35.10
2022-10-26T20:23:43.064Z,30.55
2022-10-26T20:26:11.839Z,30.55
2022-10-26T20:28:48.130Z,31.48
2022-10-26T20:33:41.922Z,28.83
2022-10-26T20:36:09.005Z,33.67
2022-10-26T20:38:36.479Z,30.83
2022-10-26T20:41:06.380Z,33.25
2022-10-26T20:43:39.791Z,35.07
2022-10-26T20:46:26.712Z,31.90
2022-10-26T20:48:54.616Z,29.23
2022-10-26T20:51:38.542Z,29.95
2022-10-26T20:54:38.831Z,32.58
2022-10-26T20:57:12.922Z,35.25
2022-10-26T20:59:53.335Z,33.25
2022-10-26T21:02:22.650Z,32.20
2022-10-26T21:04:49.694Z,28.92
2022-10-26T21:07:16.593Z,31.08
2022-10-26T21:09:43.613Z,30.48
2022-10-26T21:12:11.125Z,33.63
2022-10-26T21:14:40.957Z,36.05
2022-10-26T21:17:08.867Z,29.40
2022-10-26T21:19:36.457Z,36.28
2022-10-26T21:22:03.869Z,33.15
2022-10-26T21:24:30.816Z,36.25
2022-10-26T21:26:57.795Z,34.80
2022-10-26T21:29:24.779Z,34.55
2022-10-26T21:31:51.670Z,35.75
2022-10-26T21:34:18.609Z,38.50
2022-10-26T21:36:45.501Z,38.53
2022-10-26T21:39:12.437Z,38.95
2022-10-26T21:41:39.417Z,38.17
2022-10-26T21:44:09.260Z,34.95
2022-10-26T21:46:42.573Z,37.72
2022-10-26T21:49:09.458Z,29.95
2022-10-26T21:51:36.407Z,32.33
2022-10-26T21:57:56.877Z,36.58
2022-10-26T22:00:23.940Z,38.00
2022-10-26T22:02:51.150Z,38.65
2022-10-26T22:05:18.307Z,41.30
2022-10-26T22:07:45.217Z,46.10
2022-10-26T22:10:12.180Z,45.72
2022-10-26T22:12:39.111Z,47.42
2022-10-26T22:15:06.890Z,43.25
2022-10-26T22:17:38.496Z,40.08
2022-10-26T22:20:07.491Z,39.47
2022-10-26T22:22:34.501Z,44.63
2022-10-26T22:25:01.485Z,39.35
2022-10-26T22:27:29.361Z,40.75
2022-10-26T22:29:56.327Z,49.95
2022-10-26T22:32:23.481Z,49.67
2022-10-26T22:34:50.776Z,48.00
2022-10-26T22:37:27.130Z,47.10
2022-10-26T22:39:54.029Z,43.58
2022-10-26T22:42:21.185Z,51.90
2022-10-26T22:44:48.088Z,45.30
2022-10-26T22:47:15.044Z,47.72
2022-10-26T22:49:41.975Z,46.75
2022-10-26T22:52:08.975Z,49.22
2022-10-26T22:54:35.904Z,47.50
2022-10-26T22:57:02.813Z,50.00
2022-10-26T22:59:29.691Z,46.95
2022-10-26T23:01:56.745Z,53.28
2022-10-26T23:04:23.725Z,51.00
2022-10-26T23:06:50.630Z,55.67
2022-10-26T23:09:17.640Z,52.42
2022-10-26T23:11:44.527Z,46.63
2022-10-26T23:14:11.479Z,46.47
2022-10-26T23:16:38.384Z,50.58
2022-10-26T23:19:05.291Z,48.78
2022-10-26T23:21:32.307Z,47.45
2022-10-26T23:23:59.264Z,49.05
2022-10-26T23:26:26.296Z,49.97
2022-10-26T23:28:53.223Z,48.50
2022-10-26T23:31:25.993Z,52.47
2022-10-26T23:33:54.714Z,51.08
2022-10-26T23:36:22.273Z,48.15
2022-10-26T23:38:49.301Z,48.97
2022-10-26T23:41:16.232Z,49.78
2022-10-26T23:43:43.224Z,47.40
2022-10-26T23:46:10.450Z,47.58
2022-10-26T23:48:37.561Z,47.00
2022-10-26T23:51:04.535Z,40.47
2022-10-26T23:53:31.818Z,44.30
2022-10-26T23:55:58.707Z,44.80
2022-10-26T23:58:25.572Z,42.55
